Time;durP1;ratioP1;P1;durP2;ratioP2;P2;SDS_P1;SDS_P2;PMS_P1;PMS_P2;Temp;Humidity;BMP_temperature;BMP_pressure;BME280_temperature;BME280_humidity;BME280_pressure;Samples;Min_cycle;Max_cycle;Signal;HPM_P1;HPM_P2
2023/03/07 00:00:39;;;;;;;9.52;5.68;;;4.60;99.90;;;;;;4859108;29;20048;-87
2023/03/07 00:03:04;;;;;;;8.07;5.20;;;4.60;99.90;;;;;;4859968;29;20053;-89
2023/03/07 00:05:31;;;;;;;7.65;4.78;;;4.60;99.90;;;;;;4859600;29;20061;-89
2023/03/07 00:07:57;;;;;;;12.75;7.22;;;4.60;99.90;;;;;;4859254;29;20068;-89
2023/03/07 00:10:23;;;;;;;9.52;4.30;;;4.60;99.90;;;;;;4860889;29;20042;-89
2023/03/07 00:12:49;;;;;;;8.45;4.00;;;4.60;99.90;;;;;;4859213;29;20045;-90
2023/03/07 00:15:15;;;;;;;8.98;5.38;;;4.60;99.90;;;;;;4858876;29;20050;-89
2023/03/07 00:17:41;;;;;;;6.45;2.40;;;4.60;99.90;;;;;;4860407;29;20060;-89
2023/03/07 00:20:14;;;;;;;4.63;2.40;;;4.60;99.90;;;;;;4859896;29;20457;-90
2023/03/07 00:22:41;;;;;;;8.75;4.97;;;4.60;99.90;;;;;;4858806;29;20044;-89
2023/03/07 00:25:07;;;;;;;4.95;2.20;;;4.60;99.90;;;;;;4859279;29;20053;-89
2023/03/07 00:27:33;;;;;;;7.35;2.55;;;4.60;99.90;;;;;;4859140;29;20052;-89
2023/03/07 00:29:59;;;;;;;5.78;2.20;;;4.60;99.90;;;;;;4859865;29;20046;-88
2023/03/07 00:32:25;;;;;;;5.68;1.40;;;4.60;99.90;;;;;;4859811;29;20040;-87
2023/03/07 00:34:52;;;;;;;6.25;1.77;;;4.60;99.90;;;;;;4860383;29;20045;-89
2023/03/07 00:37:17;;;;;;;3.72;1.58;;;4.50;99.90;;;;;;4860142;29;20045;-88
2023/03/07 00:39:43;;;;;;;5.25;1.60;;;4.50;99.90;;;;;;4862033;29;20048;-88
2023/03/07 00:42:08;;;;;;;4.68;1.38;;;4.50;99.90;;;;;;4863685;29;20049;-88
2023/03/07 00:44:34;;;;;;;8.45;3.88;;;4.50;99.90;;;;;;4877132;29;20418;-88
2023/03/07 00:47:00;;;;;;;5.60;1.20;;;4.50;99.90;;;;;;4862633;29;20053;-88
2023/03/07 00:49:26;;;;;;;3.72;1.00;;;4.50;99.90;;;;;;4863604;29;20113;-88
2023/03/07 00:51:52;;;;;;;6.03;1.98;;;4.50;99.90;;;;;;4861568;29;20052;-89
2023/03/07 00:54:18;;;;;;;5.57;1.40;;;4.50;99.90;;;;;;4861837;29;20053;-88
2023/03/07 00:56:44;;;;;;;6.88;1.38;;;4.50;99.90;;;;;;4863630;29;20052;-88
2023/03/07 00:59:09;;;;;;;6.28;1.58;;;4.40;99.90;;;;;;4863267;29;20498;-89
2023/03/07 01:01:35;;;;;;;6.18;1.55;;;4.40;99.90;;;;;;4863495;29;20083;-89
2023/03/07 01:04:01;;;;;;;5.55;1.60;;;4.40;99.90;;;;;;4862880;29;20561;-89
2023/03/07 01:06:29;;;;;;;6.40;1.60;;;4.40;99.90;;;;;;4861935;29;20037;-89
2023/03/07 01:08:57;;;;;;;5.00;1.10;;;4.40;99.90;;;;;;4847988;29;20049;-89
2023/03/07 01:11:23;;;;;;;5.18;1.58;;;4.40;99.90;;;;;;4861656;29;20129;-90
2023/03/07 01:13:48;;;;;;;7.75;1.35;;;4.40;99.90;;;;;;4862422;29;20136;-90
2023/03/07 01:16:23;;;;;;;3.70;0.98;;;4.40;99.90;;;;;;4861879;29;20041;-89
2023/03/07 01:18:51;;;;;;;9.02;1.60;;;4.40;99.90;;;;;;4861883;29;20073;-89
2023/03/07 01:21:22;;;;;;;4.80;1.20;;;4.40;99.90;;;;;;4863522;29;20055;-89
2023/03/07 01:23:48;;;;;;;4.80;1.40;;;4.40;99.90;;;;;;4862494;29;20455;-89
2023/03/07 01:26:17;;;;;;;3.85;1.05;;;4.40;99.90;;;;;;4876692;29;20041;-89
2023/03/07 01:28:43;;;;;;;3.88;0.93;;;4.40;99.90;;;;;;4861929;29;20459;-89
2023/03/07 01:31:09;;;;;;;4.82;1.25;;;4.40;99.90;;;;;;4862113;29;20084;-89
2023/03/07 01:33:35;;;;;;;6.00;1.13;;;4.40;99.90;;;;;;4862387;29;20081;-89
2023/03/07 01:36:00;;;;;;;4.32;1.20;;;4.40;99.90;;;;;;4862964;29;20046;-89
2023/03/07 01:38:27;;;;;;;4.07;1.27;;;4.40;99.90;;;;;;4862424;29;20125;-89
2023/03/07 01:40:53;;;;;;;5.57;1.10;;;4.40;99.90;;;;;;4848210;29;20049;-89
2023/03/07 01:43:22;;;;;;;5.43;1.00;;;4.40;99.90;;;;;;4862278;29;20033;-89
2023/03/07 01:45:48;;;;;;;7.75;0.90;;;4.40;99.90;;;;;;4862533;29;20068;-89
2023/03/07 01:48:13;;;;;;;5.18;1.08;;;4.40;99.90;;;;;;4857709;29;20057;-88
2023/03/07 01:50:40;;;;;;;6.60;1.30;;;4.40;99.90;;;;;;4858433;29;20490;-89
2023/03/07 01:53:07;;;;;;;4.82;1.10;;;4.40;99.90;;;;;;4861567;29;20056;-89
2023/03/07 01:55:34;;;;;;;9.57;1.20;;;4.40;99.90;;;;;;4862547;29;20054;-89
2023/03/07 01:58:07;;;;;;;12.52;1.30;;;4.40;99.90;;;;;;4852643;29;20060;-89
2023/03/07 02:00:35;;;;;;;8.18;1.20;;;4.40;99.90;;;;;;4853625;29;20057;-89
2023/03/07 02:03:06;;;;;;;5.30;1.10;;;4.30;99.90;;;;;;4850278;29;20052;-89
2023/03/07 02:05:36;;;;;;;7.53;1.15;;;4.30;99.90;;;;;;4862150;29;20482;-89
2023/03/07 02:08:05;;;;;;;7.32;1.25;;;4.30;99.90;;;;;;4861963;29;20045;-90
2023/03/07 02:10:32;;;;;;;7.90;1.30;;;4.30;99.90;;;;;;4861526;29;20164;-90
2023/03/07 02:12:58;;;;;;;8.73;1.25;;;4.30;99.90;;;;;;4862259;29;20132;-90
2023/03/07 02:15:24;;;;;;;8.48;1.20;;;4.30;99.90;;;;;;4861366;29;20124;-90
2023/03/07 02:17:50;;;;;;;9.15;1.30;;;4.30;99.90;;;;;;4861227;29;20054;-90
2023/03/07 02:20:25;;;;;;;6.28;1.23;;;4.30;99.90;;;;;;4857714;29;20045;-90
2023/03/07 02:22:50;;;;;;;7.78;1.10;;;4.30;99.90;;;;;;4860177;29;20050;-89
2023/03/07 02:25:35;;;;;;;5.40;1.15;;;4.40;99.90;;;;;;4861996;29;20238;-90
2023/03/07 02:28:03;;;;;;;7.15;1.23;;;4.30;99.90;;;;;;4861074;29;20181;-90
2023/03/07 02:30:29;;;;;;;8.40;1.80;;;4.30;99.90;;;;;;4859857;29;20069;-90
2023/03/07 02:32:54;;;;;;;5.88;1.00;;;4.30;99.90;;;;;;4861574;29;20406;-90
2023/03/07 02:35:24;;;;;;;7.78;1.60;;;4.30;99.90;;;;;;4860617;29;20045;-90
2023/03/07 02:37:55;;;;;;;8.65;1.77;;;4.30;99.90;;;;;;4862127;29;20049;-88
2023/03/07 02:40:23;;;;;;;7.22;1.08;;;4.30;99.90;;;;;;4860858;29;20045;-88
2023/03/07 02:42:51;;;;;;;6.72;1.20;;;4.30;99.90;;;;;;4861040;29;20057;-89
2023/03/07 02:45:17;;;;;;;6.80;1.20;;;4.30;99.90;;;;;;4860640;29;20042;-90
2023/03/07 02:47:44;;;;;;;9.27;1.60;;;4.30;99.90;;;;;;4862869;29;20451;-87
2023/03/07 02:50:11;;;;;;;6.95;1.10;;;4.30;99.90;;;;;;4861461;29;20475;-88
2023/03/07 02:52:37;;;;;;;7.65;1.40;;;4.30;99.90;;;;;;4860942;29;20136;-89
2023/03/07 02:55:03;;;;;;;8.02;1.30;;;4.20;99.90;;;;;;4862111;29;20088;-88
2023/03/07 02:57:28;;;;;;;10.00;1.38;;;4.30;99.90;;;;;;4860143;29;20169;-88
2023/03/07 02:59:54;;;;;;;6.82;1.05;;;4.20;99.90;;;;;;4861323;29;20078;-88
2023/03/07 03:02:20;;;;;;;7.80;1.20;;;4.20;99.90;;;;;;4860694;29;20510;-87
2023/03/07 03:04:45;;;;;;;14.38;2.10;;;4.10;99.90;;;;;;4861048;29;20038;-88
2023/03/07 03:07:11;;;;;;;9.23;1.50;;;4.20;99.90;;;;;;4861669;29;20416;-89
2023/03/07 03:09:36;;;;;;;11.57;1.45;;;4.10;99.90;;;;;;4859817;29;20053;-88
2023/03/07 03:12:02;;;;;;;7.60;1.58;;;4.10;99.90;;;;;;4859163;29;20041;-88
2023/03/07 03:14:28;;;;;;;10.77;1.40;;;4.10;99.90;;;;;;4860142;29;20057;-88
2023/03/07 03:16:54;;;;;;;12.05;1.63;;;4.10;99.90;;;;;;4860122;29;20046;-89
2023/03/07 03:19:20;;;;;;;9.52;1.58;;;4.00;99.90;;;;;;4859183;29;20041;-88
2023/03/07 03:21:45;;;;;;;11.07;1.67;;;4.00;99.90;;;;;;4860391;29;20072;-88
2023/03/07 03:24:11;;;;;;;10.82;1.23;;;4.00;99.90;;;;;;4860995;29;20046;-88
2023/03/07 03:26:37;;;;;;;13.55;1.55;;;3.90;99.90;;;;;;4875064;29;20141;-89
2023/03/07 03:29:05;;;;;;;8.73;1.50;;;3.90;99.90;;;;;;4861581;29;20069;-89
2023/03/07 03:31:31;;;;;;;8.82;1.35;;;3.90;99.90;;;;;;4859657;29;20520;-88
2023/03/07 03:33:58;;;;;;;12.65;1.45;;;3.90;99.90;;;;;;4859919;29;20033;-89
2023/03/07 03:36:24;;;;;;;13.43;1.55;;;3.90;99.90;;;;;;4860383;29;20045;-88
2023/03/07 03:38:55;;;;;;;11.18;1.60;;;3.90;99.90;;;;;;4861298;29;20085;-89
2023/03/07 03:41:21;;;;;;;10.40;1.55;;;3.80;99.90;;;;;;4860119;29;20054;-89
2023/03/07 03:43:47;;;;;;;11.20;1.50;;;3.80;99.90;;;;;;4861598;29;20033;-88
2023/03/07 03:46:13;;;;;;;12.45;1.73;;;3.80;99.90;;;;;;4859671;29;20101;-89
2023/03/07 03:48:39;;;;;;;8.65;1.35;;;3.80;99.90;;;;;;4861289;29;20046;-89
2023/03/07 03:51:10;;;;;;;8.20;1.20;;;3.80;99.90;;;;;;4860012;29;20056;-90
2023/03/07 03:53:38;;;;;;;6.93;1.35;;;3.80;99.90;;;;;;4860749;29;20041;-89
2023/03/07 03:56:07;;;;;;;10.35;1.48;;;3.70;99.90;;;;;;4860680;29;20511;-89
2023/03/07 03:58:34;;;;;;;9.82;1.48;;;3.70;99.90;;;;;;4859991;29;20041;-89
2023/03/07 04:01:05;;;;;;;8.43;1.55;;;3.70;99.90;;;;;;4860284;29;20139;-89
2023/03/07 04:03:32;;;;;;;8.07;1.27;;;3.70;99.90;;;;;;4859461;29;20045;-89
2023/03/07 04:06:03;;;;;;;12.98;1.23;;;3.70;99.90;;;;;;4860230;29;20046;-89
2023/03/07 04:08:30;;;;;;;9.02;1.40;;;3.60;99.90;;;;;;4859308;29;20049;-90
2023/03/07 04:10:55;;;;;;;8.57;1.20;;;3.60;99.90;;;;;;4860599;29;20054;-89
2023/03/07 04:13:21;;;;;;;11.25;1.60;;;3.60;99.90;;;;;;4863871;29;20136;-89
2023/03/07 04:15:47;;;;;;;12.50;1.50;;;3.60;99.90;;;;;;4864918;29;20125;-90
2023/03/07 04:18:12;;;;;;;14.00;1.27;;;3.60;99.90;;;;;;4863347;29;20045;-89
2023/03/07 04:20:38;;;;;;;14.43;1.70;;;3.60;99.90;;;;;;4863889;29;20053;-89
2023/03/07 04:23:04;;;;;;;14.18;1.85;;;3.60;99.90;;;;;;4863277;29;20129;-89
2023/03/07 04:25:29;;;;;;;12.20;1.63;;;3.60;99.90;;;;;;4864741;29;20084;-89
2023/03/07 04:27:55;;;;;;;6.35;1.30;;;3.50;99.90;;;;;;4864510;29;20077;-89
2023/03/07 04:30:21;;;;;;;12.60;1.48;;;3.50;99.90;;;;;;4864937;29;20129;-89
2023/03/07 04:32:46;;;;;;;7.75;1.42;;;3.50;99.90;;;;;;4864063;29;20041;-90
2023/03/07 04:35:12;;;;;;;11.20;1.58;;;3.50;99.90;;;;;;4863482;29;20045;-90
2023/03/07 04:37:38;;;;;;;9.52;1.20;;;3.50;99.90;;;;;;4863608;29;20120;-90
2023/03/07 04:40:04;;;;;;;12.63;1.45;;;3.50;99.90;;;;;;4865659;29;20081;-89
2023/03/07 04:42:30;;;;;;;13.38;1.60;;;3.50;99.90;;;;;;4864961;29;20124;-90
2023/03/07 04:44:55;;;;;;;8.43;1.05;;;3.50;99.90;;;;;;4865003;29;20101;-89
2023/03/07 04:47:21;;;;;;;8.48;1.13;;;3.50;99.90;;;;;;4858480;29;20097;-90
2023/03/07 04:49:46;;;;;;;8.63;1.20;;;3.50;99.90;;;;;;4861685;29;20104;-89
2023/03/07 04:52:12;;;;;;;10.05;1.30;;;3.50;99.90;;;;;;4864812;29;20106;-89
2023/03/07 04:54:39;;;;;;;11.73;1.42;;;3.50;99.90;;;;;;4863448;29;20097;-90
2023/03/07 04:57:05;;;;;;;10.18;1.30;;;3.50;99.90;;;;;;4863274;29;20053;-91
2023/03/07 04:59:30;;;;;;;8.52;1.42;;;3.50;99.90;;;;;;4879417;29;20132;-90
2023/03/07 05:01:56;;;;;;;9.95;1.20;;;3.50;99.90;;;;;;4863581;29;20037;-91
2023/03/07 05:04:22;;;;;;;15.38;1.75;;;3.50;99.90;;;;;;4863141;29;20098;-90
2023/03/07 05:06:47;;;;;;;7.60;1.42;;;3.50;99.90;;;;;;4848960;29;20054;-91
2023/03/07 05:09:13;;;;;;;8.65;1.38;;;3.50;99.90;;;;;;4864507;29;20486;-92
2023/03/07 05:11:42;;;;;;;11.38;1.40;;;3.50;99.90;;;;;;4864767;29;20048;-95
2023/03/07 05:14:07;;;;;;;10.13;1.52;;;3.50;99.90;;;;;;4851077;29;20095;-92
2023/03/07 05:16:33;;;;;;;6.60;1.10;;;3.50;99.90;;;;;;4864238;29;20447;-91
2023/03/07 05:18:59;;;;;;;8.18;1.40;;;3.50;99.90;;;;;;4863419;29;20050;-92
2023/03/07 05:33:04;;;;;;;8.15;1.40;;;3.50;99.90;;;;;;4875701;23;20065;-91
2023/03/07 05:35:39;;;;;;;8.75;1.50;;;3.50;99.90;;;;;;4845040;29;20053;-93
2023/03/07 05:38:55;;;;;;;;;;;;;;;;;;;;;
2023/03/07 05:41:40;;;;;;;8.05;1.10;;;3.50;99.90;;;;;;4842900;29;20057;-92
2023/03/07 05:44:06;;;;;;;11.25;1.33;;;3.60;99.90;;;;;;4845381;29;20053;-92
2023/03/07 05:46:32;;;;;;;11.85;1.45;;;3.50;99.90;;;;;;4844601;29;20559;-92
2023/03/07 05:48:58;;;;;;;11.82;1.90;;;3.50;99.90;;;;;;4867959;24;20091;-91
2023/03/07 05:51:24;;;;;;;10.75;1.20;;;3.50;99.90;;;;;;4878518;29;20076;-91
2023/03/07 05:53:55;;;;;;;12.85;1.48;;;3.50;99.90;;;;;;4862730;29;20399;-91
2023/03/07 05:56:20;;;;;;;9.07;1.27;;;3.50;99.90;;;;;;4864148;29;20045;-90
2023/03/07 05:58:46;;;;;;;8.52;1.40;;;3.50;99.90;;;;;;4862680;29;20053;-90
2023/03/07 06:01:12;;;;;;;9.13;1.35;;;3.50;99.90;;;;;;4862378;29;20073;-91
2023/03/07 06:03:41;;;;;;;11.68;1.88;;;3.50;99.90;;;;;;4863823;29;20571;-90
2023/03/07 06:06:07;;;;;;;11.05;1.70;;;3.60;99.90;;;;;;4863981;29;20046;-91
2023/03/07 06:08:33;;;;;;;12.63;1.63;;;3.50;99.90;;;;;;4861768;29;20102;-91
2023/03/07 06:10:59;;;;;;;11.65;1.58;;;3.60;99.90;;;;;;4864160;29;20085;-90
2023/03/07 06:13:25;;;;;;;11.20;1.60;;;3.60;99.90;;;;;;4861524;29;20045;-89
2023/03/07 06:15:52;;;;;;;10.88;1.42;;;3.60;99.90;;;;;;4862267;29;20045;-91
2023/03/07 06:18:19;;;;;;;8.48;1.23;;;3.60;99.90;;;;;;4862611;29;20053;-90
2023/03/07 06:20:54;;;;;;;13.80;2.33;;;3.50;99.90;;;;;;4862071;29;20061;-90
2023/03/07 06:23:19;;;;;;;11.00;1.30;;;3.60;99.90;;;;;;4863374;29;20049;-89
2023/03/07 06:25:45;;;;;;;7.93;1.23;;;3.50;99.90;;;;;;4863168;29;20052;-90
2023/03/07 06:28:11;;;;;;;16.88;1.67;;;3.60;99.90;;;;;;4862482;29;20045;-90
2023/03/07 06:30:36;;;;;;;10.45;1.50;;;3.50;99.90;;;;;;4863026;29;20045;-89
2023/03/07 06:33:02;;;;;;;14.05;1.45;;;3.60;99.90;;;;;;4861636;29;20054;-91
2023/03/07 06:35:27;;;;;;;9.70;1.40;;;3.50;99.90;;;;;;4860963;29;20041;-90
2023/03/07 06:37:53;;;;;;;8.25;1.40;;;3.60;99.90;;;;;;4862041;29;20053;-91
2023/03/07 06:40:19;;;;;;;10.15;1.20;;;3.50;99.90;;;;;;4861706;29;20045;-90
2023/03/07 06:42:44;;;;;;;7.45;1.20;;;3.50;99.90;;;;;;4861807;29;20478;-91
2023/03/07 06:45:10;;;;;;;8.05;1.45;;;3.50;99.90;;;;;;4862261;29;20132;-89
2023/03/07 06:47:36;;;;;;;7.93;1.40;;;3.50;99.90;;;;;;4861641;29;20089;-90
2023/03/07 06:50:02;;;;;;;8.70;1.30;;;3.40;99.90;;;;;;4860964;29;20049;-90
2023/03/07 06:52:28;;;;;;;9.20;1.33;;;3.50;99.90;;;;;;4861445;29;20061;-90
2023/03/07 06:54:53;;;;;;;6.88;1.00;;;3.50;99.90;;;;;;4862900;29;20057;-90
2023/03/07 06:57:20;;;;;;;12.70;1.27;;;3.40;99.90;;;;;;4862380;29;20076;-90
2023/03/07 06:59:46;;;;;;;13.70;1.77;;;3.50;99.90;;;;;;4861505;29;20498;-90
2023/03/07 07:02:13;;;;;;;10.18;1.50;;;3.40;99.90;;;;;;4862745;29;20049;-90
2023/03/07 07:04:39;;;;;;;7.63;1.25;;;3.40;99.90;;;;;;4861153;29;20076;-90
2023/03/07 07:07:06;;;;;;;6.40;1.20;;;3.40;99.90;;;;;;4861785;29;20060;-90
2023/03/07 07:09:32;;;;;;;4.25;0.93;;;3.40;99.90;;;;;;4861892;29;20047;-89
2023/03/07 07:11:59;;;;;;;5.93;1.17;;;3.40;99.90;;;;;;4860719;29;20044;-89
2023/03/07 07:14:24;;;;;;;8.30;1.25;;;3.40;99.90;;;;;;4859312;29;20057;-90
2023/03/07 07:16:50;;;;;;;6.97;1.08;;;3.40;99.90;;;;;;4861231;29;20045;-91
2023/03/07 07:19:16;;;;;;;6.45;0.90;;;3.40;99.90;;;;;;4846504;29;20403;-89
2023/03/07 07:21:42;;;;;;;9.27;1.20;;;3.40;99.90;;;;;;4861928;29;20071;-88
2023/03/07 07:24:11;;;;;;;12.18;1.30;;;3.40;99.90;;;;;;4861557;29;20050;-90
2023/03/07 07:26:37;;;;;;;8.63;1.30;;;3.40;99.90;;;;;;4862245;29;20193;-91
2023/03/07 07:29:02;;;;;;;6.85;1.00;;;3.40;99.90;;;;;;4862800;29;20479;-91
2023/03/07 07:31:28;;;;;;;7.70;1.05;;;3.40;99.90;;;;;;4862563;29;20041;-90
2023/03/07 07:33:54;;;;;;;11.50;1.55;;;3.40;99.90;;;;;;4863025;29;20041;-91
2023/03/07 07:36:20;;;;;;;7.10;1.13;;;3.40;99.90;;;;;;4860649;29;20051;-91
2023/03/07 07:38:46;;;;;;;5.43;1.17;;;3.40;99.90;;;;;;4861282;29;20053;-91
2023/03/07 07:41:11;;;;;;;10.45;1.30;;;3.40;99.90;;;;;;4860419;29;20077;-91
2023/03/07 07:43:37;;;;;;;7.55;1.15;;;3.40;99.90;;;;;;4861974;29;20475;-90
2023/03/07 07:46:03;;;;;;;7.43;1.20;;;3.40;99.90;;;;;;4861917;29;20037;-91
2023/03/07 07:48:30;;;;;;;8.85;1.33;;;3.40;99.90;;;;;;4861238;29;20076;-91
2023/03/07 07:51:00;;;;;;;9.45;1.48;;;3.40;99.90;;;;;;4862461;29;20049;-90
2023/03/07 07:53:26;;;;;;;7.80;1.10;;;3.40;99.90;;;;;;4860754;29;20045;-91
2023/03/07 07:55:52;;;;;;;6.60;1.10;;;3.50;99.90;;;;;;4860554;29;20056;-90
2023/03/07 07:58:20;;;;;;;7.57;1.08;;;3.50;99.90;;;;;;4860795;29;20046;-94
2023/03/07 08:00:46;;;;;;;4.93;0.80;;;3.50;99.90;;;;;;4867373;29;20055;-95
2023/03/07 08:03:13;;;;;;;6.15;1.05;;;3.50;99.90;;;;;;4866240;29;20140;-96
2023/03/07 08:06:25;;;;;;;5.78;1.08;;;3.50;99.90;;;;;;4871762;29;20077;-96
2023/03/07 08:09:16;;;;;;;;;;;;;;;;;;;;;
2023/03/07 08:16:27;;;;;;;3.50;0.73;;;3.40;99.90;;;;;;4770693;30;20506;-94
2023/03/07 08:19:41;;;;;;;5.78;0.93;;;3.50;99.90;;;;;;4783132;29;20144;-96
2023/03/07 08:22:11;;;;;;;6.03;0.93;;;3.40;99.90;;;;;;4767953;30;20055;-94
2023/03/07 08:27:33;;;;;;;6.63;0.75;;;3.50;99.90;;;;;;5141267;24;20074;-95
2023/03/07 08:33:32;;;;;;;7.80;1.15;;;3.50;99.90;;;;;;4857044;29;20053;-96
2023/03/07 08:42:13;;;;;;;6.57;1.13;;;3.50;99.90;;;;;;4925316;23;20088;-96
2023/03/07 09:08:29;;;;;;;5.78;1.00;;;3.70;99.90;;;;;;1501129;24;21750;-96
2023/03/07 09:11:07;;;;;;;;;;;;;;;;;;;;;
2023/03/07 09:13:41;;;;;;;6.18;0.90;;;3.80;99.90;;;;;;4839970;29;20089;-95
2023/03/07 09:16:23;;;;;;;;;;;;;;;;;;;;;
2023/03/07 09:19:13;;;;;;;12.88;1.20;;;3.80;99.90;;;;;;4858436;29;20054;-96
2023/03/07 09:29:46;;;;;;;5.40;0.70;;;3.90;99.90;;;;;;4855947;29;20034;-96
2023/03/07 09:32:38;;;;;;;4.88;1.10;;;3.90;99.90;;;;;;4859063;29;20054;-96
2023/03/07 09:35:05;;;;;;;2.85;0.60;;;3.90;99.90;;;;;;4859737;29;20113;-96
2023/03/07 09:37:59;;;;;;;3.17;0.70;;;3.90;99.90;;;;;;5121689;23;21008;-96
2023/03/07 09:40:48;;;;;;;7.72;1.15;;;3.80;99.90;;;;;;5150917;24;20343;-96
2023/03/07 09:43:46;;;;;;;4.85;0.80;;;3.70;99.90;;;;;;4883735;29;20049;-96
2023/03/07 09:46:36;;;;;;;5.68;1.00;;;3.60;99.90;;;;;;5103477;23;20117;-95
2023/03/07 09:49:27;;;;;;;9.85;1.13;;;3.50;99.90;;;;;;4869389;29;20052;-96
2023/03/07 09:51:58;;;;;;;4.22;0.90;;;3.50;99.90;;;;;;4871346;29;20049;-96
2023/03/07 09:55:04;;;;;;;;;;;;;;;;;;;;;
2023/03/07 09:57:49;;;;;;;5.38;1.08;;;3.50;99.90;;;;;;4872691;29;20045;-96
2023/03/07 10:00:44;;;;;;;6.65;1.08;;;3.50;99.90;;;;;;4871429;29;20045;-95
2023/03/07 10:03:47;;;;;;;;;;;;;;;;;;;;;
2023/03/07 10:06:30;;;;;;;4.85;0.77;;;3.50;99.90;;;;;;4865056;29;20049;-96
2023/03/07 10:09:18;;;;;;;8.30;1.20;;;3.50;99.90;;;;;;4869619;29;20050;-96
2023/03/07 10:12:17;;;;;;;3.67;1.23;;;3.60;99.90;;;;;;4872121;29;20045;-96
2023/03/07 10:15:10;;;;;;;4.03;0.80;;;3.60;99.90;;;;;;4862703;29;20049;-96
2023/03/07 10:17:57;;;;;;;6.78;0.98;;;3.60;99.90;;;;;;4900283;23;20085;-96
2023/03/07 10:21:03;;;;;;;;;;;;;;;;;;;;;
2023/03/07 10:24:11;;;;;;;6.10;1.00;;;3.70;99.90;;;;;;4865918;29;20116;-96
2023/03/07 10:27:00;;;;;;;8.05;1.10;;;3.70;99.90;;;;;;4898919;29;20056;-96
2023/03/07 10:30:17;;;;;;;8.57;1.10;;;3.70;99.90;;;;;;4896154;29;20504;-96
2023/03/07 11:02:55;;;;;;;9.77;1.98;;;4.40;99.90;;;;;;4795144;29;20064;-96
2023/03/07 11:05:55;;;;;;;11.10;2.38;;;4.50;99.90;;;;;;4780708;30;20106;-94
2023/03/07 11:08:44;;;;;;;13.68;2.17;;;4.60;99.90;;;;;;4775085;29;20064;-95
2023/03/07 11:14:30;;;;;;;5.80;1.17;;;4.80;99.90;;;;;;4774758;30;20088;-94
2023/03/07 11:16:58;;;;;;;12.05;1.63;;;4.80;99.90;;;;;;4792809;29;20143;-93
2023/03/07 11:19:41;;;;;;;9.15;1.30;;;4.80;99.90;;;;;;4790610;30;20055;-95
2023/03/07 11:22:33;;;;;;;11.50;1.40;;;4.80;99.90;;;;;;4789141;30;20144;-95
2023/03/07 11:25:17;;;;;;;7.05;1.13;;;4.80;99.90;;;;;;4774222;30;20062;-95
2023/03/07 11:27:56;;;;;;;10.73;3.30;;;4.80;99.90;;;;;;4775289;30;20047;-95
2023/03/07 11:31:07;;;;;;;14.93;5.30;;;4.70;99.90;;;;;;4776928;30;20044;-95
2023/03/07 11:33:44;;;;;;;9.68;1.60;;;4.80;99.90;;;;;;4767150;30;20135;-94
2023/03/07 11:36:16;;;;;;;8.88;1.92;;;4.70;99.90;;;;;;4772204;30;20059;-93
2023/03/07 11:39:00;;;;;;;5.28;1.40;;;4.70;99.90;;;;;;4767648;30;20471;-94
2023/03/07 11:42:08;;;;;;;6.57;1.00;;;4.70;99.90;;;;;;4769602;30;20047;-94
2023/03/07 11:44:40;;;;;;;7.72;1.33;;;4.70;99.90;;;;;;4725061;30;20113;-96
2023/03/07 11:47:44;;;;;;;6.57;1.08;;;4.70;99.90;;;;;;4775031;30;20061;-94
2023/03/07 11:50:26;;;;;;;6.85;1.67;;;4.70;99.90;;;;;;4790273;30;20058;-95
2023/03/07 11:53:10;;;;;;;7.10;1.65;;;4.70;99.90;;;;;;4760674;30;20063;-95
2023/03/07 11:55:55;;;;;;;5.78;1.15;;;4.70;99.90;;;;;;4770348;30;20039;-96
2023/03/07 11:58:42;;;;;;;5.63;1.50;;;4.70;99.90;;;;;;4729436;30;20223;-96
2023/03/07 12:01:27;;;;;;;8.38;1.33;;;4.70;99.90;;;;;;4804755;29;20051;-94
2023/03/07 12:04:27;;;;;;;10.35;1.85;;;4.70;99.90;;;;;;4805427;29;20073;-96
2023/03/07 12:07:11;;;;;;;7.13;1.63;;;4.70;99.90;;;;;;4799280;29;20058;-95
2023/03/07 12:10:00;;;;;;;8.27;1.35;;;4.70;99.90;;;;;;4805859;29;20054;-95
2023/03/07 12:13:05;;;;;;;9.77;1.45;;;4.70;99.90;;;;;;4807553;29;20131;-94
2023/03/07 12:15:56;;;;;;;10.02;1.48;;;4.80;99.90;;;;;;4807735;29;20039;-93
2023/03/07 12:18:55;;;;;;;7.43;1.55;;;4.80;99.90;;;;;;4808002;29;20084;-93
2023/03/07 12:21:26;;;;;;;11.45;1.92;;;4.80;99.90;;;;;;4806883;29;20523;-95
2023/03/07 12:23:58;;;;;;;11.95;1.83;;;4.90;99.90;;;;;;4796200;29;20048;-96
2023/03/07 12:26:56;;;;;;;13.88;2.17;;;4.90;99.90;;;;;;4803396;29;20130;-94
2023/03/07 12:29:38;;;;;;;10.38;2.00;;;5.00;99.90;;;;;;4785779;29;20058;-96
2023/03/07 12:32:12;;;;;;;10.43;2.22;;;5.00;99.90;;;;;;4807814;29;20043;-95
2023/03/07 12:34:42;;;;;;;8.73;1.30;;;5.00;99.90;;;;;;4808485;29;20054;-95
2023/03/07 12:37:26;;;;;;;10.30;2.00;;;5.10;99.90;;;;;;4809555;29;20058;-96
2023/03/07 12:40:09;;;;;;;7.50;1.42;;;5.10;99.90;;;;;;4809831;29;20046;-94
2023/03/07 12:43:00;;;;;;;11.50;1.85;;;5.20;99.90;;;;;;4810408;29;20058;-96
2023/03/07 12:45:32;;;;;;;13.38;1.60;;;5.20;99.90;;;;;;4810167;29;20484;-93
2023/03/07 12:48:36;;;;;;;15.43;1.73;;;5.20;99.90;;;;;;4809857;29;20058;-95
2023/03/07 12:51:05;;;;;;;10.95;1.63;;;5.30;99.70;;;;;;4799475;29;20055;-94
2023/03/07 12:54:02;;;;;;;11.13;2.08;;;5.30;99.90;;;;;;4813911;29;20119;-94
2023/03/07 12:56:54;;;;;;;10.13;1.77;;;5.30;99.80;;;;;;4792857;29;20112;-95
2023/03/07 12:59:21;;;;;;;10.93;1.95;;;5.40;99.80;;;;;;4808822;29;20051;-94
2023/03/07 13:02:04;;;;;;;10.80;2.17;;;5.40;99.40;;;;;;4810635;29;20046;-94
2023/03/07 13:04:37;;;;;;;7.65;1.45;;;5.40;99.10;;;;;;4808896;29;20043;-93
2023/03/07 13:07:11;;;;;;;12.75;2.17;;;5.40;99.20;;;;;;4809470;29;20103;-95
2023/03/07 13:09:41;;;;;;;13.23;2.55;;;5.40;99.20;;;;;;4824538;29;20113;-94
2023/03/07 13:12:17;;;;;;;10.20;2.25;;;5.50;99.10;;;;;;4809510;29;20057;-95
2023/03/07 13:14:43;;;;;;;7.13;1.35;;;5.50;98.90;;;;;;4810103;29;20083;-93
2023/03/07 13:17:10;;;;;;;6.78;1.25;;;5.50;98.90;;;;;;4808997;29;20499;-95
2023/03/07 13:19:37;;;;;;;9.15;1.55;;;5.50;98.50;;;;;;4809211;29;20039;-95
2023/03/07 13:22:23;;;;;;;9.57;1.35;;;5.60;98.30;;;;;;4810237;29;20134;-94
2023/03/07 13:24:57;;;;;;;7.95;1.30;;;5.60;97.80;;;;;;4791549;29;20061;-95
2023/03/07 13:27:27;;;;;;;8.18;1.35;;;5.60;97.80;;;;;;4810669;29;20042;-93
2023/03/07 13:30:11;;;;;;;5.88;1.30;;;5.60;97.60;;;;;;4808913;29;20049;-94
2023/03/07 13:32:54;;;;;;;;;;;5.60;97.60;;;;;;4809480;29;20057;-93
2023/03/07 13:35:26;;;;;;;7.38;1.10;;;5.60;97.00;;;;;;4809897;29;19925;-94
2023/03/07 13:37:51;;;;;;;6.95;1.00;;;5.60;97.50;;;;;;4809077;29;20552;-95
2023/03/07 13:40:29;;;;;;;7.28;1.33;;;5.60;97.10;;;;;;4809912;29;20130;-94
2023/03/07 13:42:55;;;;;;;6.55;1.20;;;5.70;97.00;;;;;;4810627;29;20107;-93
2023/03/07 13:45:36;;;;;;;6.65;1.10;;;5.70;96.80;;;;;;4810354;29;20043;-95
2023/03/07 13:48:02;;;;;;;5.47;1.20;;;5.70;96.50;;;;;;4809793;29;20054;-94
2023/03/07 13:50:34;;;;;;;6.07;1.20;;;5.70;96.70;;;;;;4814455;29;20102;-93
2023/03/07 13:53:21;;;;;;;6.63;1.08;;;5.80;96.60;;;;;;4809726;29;20098;-95
2023/03/07 13:56:18;;;;;;;7.18;1.17;;;5.80;96.90;;;;;;4809276;29;20161;-95
2023/03/07 13:59:08;;;;;;;5.18;0.95;;;5.80;96.80;;;;;;4778409;29;20055;-96
2023/03/07 14:01:34;;;;;;;7.57;1.52;;;5.80;97.20;;;;;;4809280;29;20050;-93
2023/03/07 14:04:19;;;;;;;4.93;0.90;;;5.80;97.10;;;;;;4808349;29;20512;-93
2023/03/07 14:06:51;;;;;;;6.20;1.23;;;5.80;97.00;;;;;;4809323;29;20050;-93
2023/03/07 14:09:19;;;;;;;4.90;0.75;;;5.70;97.20;;;;;;4808174;29;20059;-93
2023/03/07 14:11:48;;;;;;;3.80;0.85;;;5.70;97.10;;;;;;4808003;29;20046;-94
2023/03/07 14:14:39;;;;;;;5.95;0.88;;;5.60;97.10;;;;;;4807885;29;20050;-95
2023/03/07 14:17:29;;;;;;;4.93;0.80;;;5.60;96.70;;;;;;4809578;29;20057;-94
2023/03/07 14:20:17;;;;;;;4.07;0.80;;;5.50;96.70;;;;;;4807866;29;20142;-94
2023/03/07 14:23:10;;;;;;;5.80;0.90;;;5.50;97.20;;;;;;4808533;29;20051;-95
2023/03/07 14:25:47;;;;;;;8.05;0.98;;;5.50;97.90;;;;;;4809282;29;20535;-94
2023/03/07 14:28:27;;;;;;;2.85;0.50;;;5.50;98.10;;;;;;4808952;29;20492;-95
2023/03/07 14:30:58;;;;;;;4.57;0.90;;;5.50;98.10;;;;;;4808443;29;20522;-94
2023/03/07 14:33:36;;;;;;;6.57;1.00;;;5.60;97.70;;;;;;4807627;29;20098;-94
2023/03/07 14:36:13;;;;;;;5.93;0.93;;;5.60;98.00;;;;;;4809098;29;20074;-95
2023/03/07 14:38:43;;;;;;;7.40;1.00;;;5.60;98.70;;;;;;4808308;29;20078;-96
2023/03/07 14:41:14;;;;;;;6.93;1.02;;;5.70;98.90;;;;;;4807409;29;20050;-95
2023/03/07 14:43:47;;;;;;;7.00;1.65;;;5.60;98.20;;;;;;4807913;29;20415;-94
2023/03/07 14:46:41;;;;;;;7.40;1.50;;;5.60;98.00;;;;;;4808116;29;20051;-94
2023/03/07 14:49:25;;;;;;;7.43;1.15;;;5.60;97.90;;;;;;4816009;29;20054;-96
2023/03/07 14:51:51;;;;;;;12.75;1.63;;;5.60;98.30;;;;;;4812352;29;20075;-95
2023/03/07 14:54:20;;;;;;;8.40;1.83;;;5.60;98.60;;;;;;4810626;29;20058;-95
2023/03/07 14:56:50;;;;;;;10.35;1.80;;;5.60;98.50;;;;;;4810129;29;20054;-94
2023/03/07 14:59:16;;;;;;;7.57;1.70;;;5.60;98.20;;;;;;4809365;29;20042;-92
2023/03/07 15:01:41;;;;;;;7.20;1.17;;;5.60;97.90;;;;;;4807148;29;20137;-93
2023/03/07 15:04:24;;;;;;;7.43;1.02;;;5.60;97.80;;;;;;4807317;29;20403;-94
2023/03/07 15:06:57;;;;;;;4.15;0.90;;;5.60;97.20;;;;;;4807073;29;20046;-91